createdAt,value
2023-07-24T00:01:06.999Z,18.82
2023-07-24T00:03:33.493Z,18.82
2023-07-24T00:06:02.772Z,18.79
2023-07-24T00:08:29.373Z,18.77
2023-07-24T00:10:55.855Z,18.75
2023-07-24T00:13:22.246Z,18.75
2023-07-24T00:15:48.970Z,18.74
2023-07-24T00:18:15.460Z,18.75
2023-07-24T00:20:41.922Z,18.75
2023-07-24T00:23:08.365Z,18.74
2023-07-24T00:25:34.773Z,18.73
2023-07-24T00:28:01.693Z,18.72
2023-07-24T00:30:28.179Z,18.71
2023-07-24T00:32:55.210Z,18.68
2023-07-24T00:35:21.661Z,18.66
2023-07-24T00:37:48.139Z,18.64
2023-07-24T00:40:14.639Z,18.63
2023-07-24T00:42:41.110Z,18.63
2023-07-24T00:45:09.614Z,18.63
2023-07-24T00:47:36.137Z,18.62
2023-07-24T00:50:02.995Z,18.62
2023-07-24T00:52:29.468Z,18.61
2023-07-24T00:54:55.966Z,18.63
2023-07-24T00:57:22.811Z,18.64
2023-07-24T00:59:49.429Z,18.64
2023-07-24T01:02:15.922Z,18.61
2023-07-24T01:04:42.420Z,18.58
2023-07-24T01:07:09.855Z,18.58
2023-07-24T01:09:36.332Z,18.57
2023-07-24T01:12:13.686Z,18.57
2023-07-24T01:14:47.155Z,18.56
2023-07-24T01:17:18.291Z,18.56
2023-07-24T01:19:59.904Z,18.55
2023-07-24T01:22:33.827Z,18.57
2023-07-24T01:25:21.794Z,18.54
2023-07-24T01:27:48.185Z,18.53
2023-07-24T01:30:18.197Z,18.53
2023-07-24T01:32:45.160Z,18.51
2023-07-24T01:35:12.557Z,18.51
2023-07-24T01:37:41.398Z,18.49
2023-07-24T01:40:09.421Z,18.48
2023-07-24T01:42:37.027Z,18.50
2023-07-24T01:45:05.042Z,18.49
2023-07-24T01:47:31.600Z,18.47
2023-07-24T01:49:58.192Z,18.46
2023-07-24T01:52:24.646Z,18.47
2023-07-24T01:54:51.254Z,18.47
2023-07-24T01:57:17.733Z,18.46
2023-07-24T01:59:45.870Z,18.45
2023-07-24T02:02:12.398Z,18.42
2023-07-24T02:04:38.816Z,18.40
2023-07-24T02:07:05.642Z,18.39
2023-07-24T02:09:32.400Z,18.38
2023-07-24T02:11:58.855Z,18.40
2023-07-24T02:14:25.539Z,18.39
2023-07-24T02:16:51.982Z,18.36
2023-07-24T02:19:18.446Z,18.39
2023-07-24T02:21:44.973Z,18.38
2023-07-24T02:24:11.409Z,18.36
2023-07-24T02:26:37.861Z,18.34
2023-07-24T02:29:04.362Z,18.34
2023-07-24T02:31:30.878Z,18.36
2023-07-24T02:33:57.360Z,18.37
2023-07-24T02:36:24.059Z,18.38
2023-07-24T02:38:50.558Z,18.38
2023-07-24T02:41:17.160Z,18.38
2023-07-24T02:43:43.604Z,18.38
2023-07-24T02:46:10.122Z,18.37
2023-07-24T02:48:36.688Z,18.38
2023-07-24T02:51:03.229Z,18.38
2023-07-24T02:53:30.010Z,18.40
2023-07-24T02:55:56.530Z,18.39
2023-07-24T02:58:22.945Z,18.39
2023-07-24T03:00:49.422Z,18.40
2023-07-24T03:03:15.961Z,18.40
2023-07-24T03:05:42.425Z,18.39
2023-07-24T03:08:08.813Z,18.37
2023-07-24T03:10:35.313Z,18.35
2023-07-24T03:13:01.838Z,18.34
2023-07-24T03:15:28.500Z,18.33
2023-07-24T03:17:55.156Z,18.33
2023-07-24T03:20:22.060Z,18.34
2023-07-24T03:22:48.740Z,18.34
2023-07-24T03:25:15.189Z,18.34
2023-07-24T03:27:41.878Z,18.33
2023-07-24T03:30:08.602Z,18.35
2023-07-24T03:32:37.165Z,18.35
2023-07-24T03:35:03.859Z,18.36
2023-07-24T03:37:30.325Z,18.34
2023-07-24T03:39:56.701Z,18.33
2023-07-24T03:42:31.797Z,18.32
2023-07-24T03:44:58.642Z,18.31
2023-07-24T03:47:25.445Z,18.31
2023-07-24T03:49:52.361Z,18.28
2023-07-24T03:52:18.988Z,18.26
2023-07-24T03:54:45.659Z,18.26
2023-07-24T03:57:12.079Z,18.24
2023-07-24T03:59:38.536Z,18.25
2023-07-24T04:02:06.339Z,18.23
2023-07-24T04:04:34.320Z,18.20
2023-07-24T04:07:01.648Z,18.20
2023-07-24T04:09:28.401Z,18.18
2023-07-24T04:11:54.968Z,18.18
2023-07-24T04:14:21.545Z,18.20
2023-07-24T04:16:48.288Z,18.19
2023-07-24T04:19:14.882Z,18.18
2023-07-24T04:21:41.325Z,18.16
2023-07-24T04:24:07.883Z,18.13
2023-07-24T04:26:36.895Z,18.13
2023-07-24T04:29:04.475Z,18.13
2023-07-24T04:31:30.940Z,18.13
2023-07-24T04:33:57.439Z,18.12
2023-07-24T04:36:23.920Z,18.10
2023-07-24T04:38:50.417Z,18.11
2023-07-24T04:41:17.110Z,18.10
2023-07-24T04:43:43.689Z,18.09
2023-07-24T04:46:10.170Z,18.09
2023-07-24T04:48:36.599Z,18.11
2023-07-24T04:51:03.002Z,18.12
2023-07-24T04:53:29.449Z,18.10
2023-07-24T04:55:56.069Z,18.10
2023-07-24T04:58:22.621Z,18.07
2023-07-24T05:00:49.092Z,18.08
2023-07-24T05:03:17.754Z,18.07
2023-07-24T05:05:46.513Z,18.06
2023-07-24T05:08:14.507Z,18.02
2023-07-24T05:10:41.039Z,18.01
2023-07-24T05:13:07.597Z,18.00
2023-07-24T05:15:34.021Z,18.01
2023-07-24T05:18:01.009Z,18.01
2023-07-24T05:20:27.548Z,18.01
2023-07-24T05:22:53.966Z,18.01
2023-07-24T05:25:20.625Z,18.01
2023-07-24T05:27:47.117Z,18.00
2023-07-24T05:30:13.543Z,18.00
2023-07-24T05:32:40.186Z,18.00
2023-07-24T05:35:06.998Z,18.00
2023-07-24T05:37:33.476Z,17.99
2023-07-24T05:39:59.928Z,18.00
2023-07-24T05:42:26.401Z,18.00
2023-07-24T05:44:52.813Z,18.00
2023-07-24T05:47:19.247Z,17.99
2023-07-24T05:49:45.657Z,17.99
2023-07-24T05:52:12.126Z,17.99
2023-07-24T05:54:39.153Z,18.00
2023-07-24T05:57:05.858Z,18.00
2023-07-24T05:59:32.704Z,18.01
2023-07-24T06:01:59.175Z,18.01
2023-07-24T06:04:25.771Z,18.02
2023-07-24T06:06:52.318Z,18.03
2023-07-24T06:09:21.864Z,18.04
2023-07-24T06:11:48.719Z,18.03
2023-07-24T06:14:15.157Z,18.06
2023-07-24T06:16:41.690Z,18.06
2023-07-24T06:19:08.241Z,18.08
2023-07-24T06:21:34.680Z,18.13
2023-07-24T06:24:03.872Z,18.16
2023-07-24T06:26:30.995Z,18.19
2023-07-24T06:28:57.674Z,18.19
2023-07-24T06:31:24.130Z,18.20
2023-07-24T06:33:50.551Z,18.21
2023-07-24T06:36:17.032Z,18.20
2023-07-24T06:38:44.925Z,18.19
2023-07-24T06:41:11.462Z,18.22
2023-07-24T06:43:37.938Z,18.25
2023-07-24T06:46:04.399Z,18.28
2023-07-24T06:48:30.957Z,18.31
2023-07-24T06:50:57.409Z,18.31
2023-07-24T06:53:24.023Z,18.32
2023-07-24T06:55:50.596Z,18.30
2023-07-24T06:58:17.057Z,18.31
2023-07-24T07:00:43.579Z,18.33
2023-07-24T07:03:10.117Z,18.34
2023-07-24T07:05:36.634Z,18.36
2023-07-24T07:08:03.257Z,18.39
2023-07-24T07:10:31.882Z,18.40
2023-07-24T07:12:58.522Z,18.41
2023-07-24T07:15:25.009Z,18.39
2023-07-24T07:17:51.440Z,18.39
2023-07-24T07:20:17.971Z,18.40
2023-07-24T07:22:44.408Z,18.37
2023-07-24T07:25:10.920Z,18.39
2023-07-24T07:27:37.437Z,18.42
2023-07-24T07:30:05.385Z,18.47
2023-07-24T07:32:31.916Z,18.49
2023-07-24T07:34:58.373Z,18.51
2023-07-24T07:37:24.928Z,18.58
2023-07-24T07:39:51.372Z,18.66
2023-07-24T07:42:18.960Z,18.72
2023-07-24T07:44:47.304Z,18.77
2023-07-24T07:47:13.931Z,18.79
2023-07-24T07:49:41.259Z,18.80
2023-07-24T07:52:08.138Z,18.82
2023-07-24T07:54:34.590Z,18.86
2023-07-24T07:57:01.481Z,18.88
2023-07-24T07:59:27.984Z,18.87
2023-07-24T08:01:54.388Z,18.87
2023-07-24T08:04:20.859Z,18.88
2023-07-24T08:06:47.311Z,18.86
2023-07-24T08:09:13.719Z,18.83
2023-07-24T08:11:40.213Z,18.82
2023-07-24T08:14:06.709Z,18.84
2023-07-24T08:16:33.646Z,18.81
2023-07-24T08:19:02.778Z,18.83
2023-07-24T08:21:29.230Z,18.91
2023-07-24T08:23:55.866Z,18.97
2023-07-24T08:26:22.303Z,18.99
2023-07-24T08:28:48.702Z,19.07
2023-07-24T08:31:15.399Z,19.16
2023-07-24T08:33:41.912Z,19.17
2023-07-24T08:36:09.418Z,19.16
2023-07-24T08:38:36.682Z,19.16
2023-07-24T08:41:14.006Z,19.18
2023-07-24T08:43:43.111Z,19.14
2023-07-24T08:46:10.780Z,19.09
2023-07-24T08:48:39.867Z,19.10
2023-07-24T08:51:14.100Z,19.13
2023-07-24T08:53:42.487Z,19.19
2023-07-24T08:56:10.794Z,19.32
2023-07-24T08:58:37.828Z,19.46
2023-07-24T09:01:05.288Z,19.58
2023-07-24T09:03:33.534Z,19.63
2023-07-24T09:06:02.553Z,19.64
2023-07-24T09:08:31.478Z,19.65
2023-07-24T09:10:59.153Z,19.64
2023-07-24T09:13:25.893Z,19.64
2023-07-24T09:15:52.548Z,19.66
2023-07-24T09:18:19.455Z,19.73
2023-07-24T09:20:46.341Z,19.78
2023-07-24T09:23:17.162Z,19.81
2023-07-24T09:25:45.148Z,19.82
2023-07-24T09:28:16.460Z,19.73
2023-07-24T09:30:52.422Z,19.66
2023-07-24T09:33:18.972Z,19.57
2023-07-24T09:35:45.408Z,19.54
2023-07-24T09:38:12.616Z,19.51
2023-07-24T09:40:40.533Z,19.51
2023-07-24T09:43:30.195Z,19.45
2023-07-24T09:46:05.931Z,19.44
2023-07-24T09:51:03.060Z,19.43
2023-07-24T09:53:38.275Z,19.45
2023-07-24T09:56:07.333Z,19.49
2023-07-24T09:58:35.810Z,19.54
2023-07-24T10:01:08.110Z,19.57
2023-07-24T10:03:43.609Z,19.70
2023-07-24T10:06:12.363Z,19.77
2023-07-24T10:08:40.816Z,19.82
2023-07-24T10:11:09.656Z,19.84
2023-07-24T10:13:37.725Z,19.80
2023-07-24T10:16:07.762Z,19.78
2023-07-24T10:18:36.153Z,19.83
2023-07-24T10:21:07.244Z,19.90
2023-07-24T10:23:45.249Z,20.06
2023-07-24T10:26:11.944Z,20.17
2023-07-24T10:28:42.520Z,20.12
2023-07-24T10:31:24.147Z,20.04
2023-07-24T10:33:52.269Z,19.94
2023-07-24T10:36:21.322Z,19.88
2023-07-24T10:38:52.824Z,19.85
2023-07-24T10:41:19.259Z,19.85
2023-07-24T10:43:50.006Z,19.92
2023-07-24T10:46:20.039Z,19.99
2023-07-24T10:48:49.332Z,20.15
2023-07-24T10:51:16.300Z,20.25
2023-07-24T10:53:46.085Z,20.27
2023-07-24T10:56:12.954Z,20.42
2023-07-24T10:58:39.469Z,20.49
2023-07-24T11:01:06.627Z,20.46
2023-07-24T11:03:33.714Z,20.46
2023-07-24T11:06:02.133Z,20.46
2023-07-24T11:08:28.618Z,20.47
2023-07-24T11:10:59.208Z,20.44
2023-07-24T11:13:28.611Z,20.47
2023-07-24T11:15:56.047Z,20.48
2023-07-24T11:18:27.830Z,20.47
2023-07-24T11:20:57.536Z,20.47
2023-07-24T11:23:25.255Z,20.40
2023-07-24T11:25:53.748Z,20.45
2023-07-24T11:28:20.784Z,20.56
2023-07-24T11:30:47.382Z,20.69
2023-07-24T11:33:19.238Z,20.82
2023-07-24T11:35:46.462Z,21.00
2023-07-24T11:38:16.540Z,21.01
2023-07-24T11:40:45.269Z,21.00
2023-07-24T11:43:23.596Z,21.00
2023-07-24T11:45:55.010Z,20.98
2023-07-24T11:48:24.244Z,20.89
2023-07-24T11:50:53.403Z,20.79
2023-07-24T11:53:32.231Z,20.74
2023-07-24T11:56:00.480Z,20.67
2023-07-24T11:58:27.903Z,20.59
2023-07-24T12:00:54.885Z,20.54
2023-07-24T12:03:30.856Z,20.42
2023-07-24T12:05:57.628Z,20.37
2023-07-24T12:08:35.405Z,20.28
2023-07-24T12:11:03.390Z,20.27
2023-07-24T12:13:30.272Z,20.27
2023-07-24T12:15:56.914Z,20.29
2023-07-24T12:18:23.394Z,20.32
2023-07-24T12:20:49.917Z,20.36
2023-07-24T12:23:17.216Z,20.43
2023-07-24T12:25:43.803Z,20.47
2023-07-24T12:28:10.309Z,20.51
2023-07-24T12:30:36.754Z,20.48
2023-07-24T12:33:03.342Z,20.49
2023-07-24T12:35:29.869Z,20.48
2023-07-24T12:37:56.289Z,20.52
2023-07-24T12:40:22.753Z,20.57
2023-07-24T12:42:49.236Z,20.60
2023-07-24T12:45:15.829Z,20.58
2023-07-24T12:47:42.401Z,20.57
2023-07-24T12:50:09.442Z,20.54
2023-07-24T12:52:35.954Z,20.48
2023-07-24T12:55:03.161Z,20.37
2023-07-24T12:57:30.376Z,20.11
2023-07-24T12:59:57.003Z,19.82
2023-07-24T13:02:23.652Z,19.74
2023-07-24T13:04:50.207Z,19.67
2023-07-24T13:07:17.086Z,19.63
2023-07-24T13:09:43.629Z,19.63
2023-07-24T13:12:10.227Z,19.54
2023-07-24T13:14:39.155Z,19.49
2023-07-24T13:17:06.979Z,19.44
2023-07-24T13:19:33.537Z,19.42
2023-07-24T13:22:00.171Z,19.36
2023-07-24T13:24:26.710Z,19.31
2023-07-24T13:26:53.337Z,19.27
2023-07-24T13:29:19.901Z,19.30
2023-07-24T13:31:46.528Z,19.32
2023-07-24T13:34:13.147Z,19.34
2023-07-24T13:36:39.574Z,19.32
2023-07-24T13:39:07.393Z,19.30
2023-07-24T13:41:34.195Z,19.33
2023-07-24T13:44:01.032Z,19.35
2023-07-24T13:46:27.514Z,19.38
2023-07-24T13:48:54.022Z,19.41
2023-07-24T13:51:20.498Z,19.40
2023-07-24T13:53:49.377Z,19.38
2023-07-24T13:56:15.865Z,19.28
2023-07-24T13:58:42.292Z,19.23
2023-07-24T14:01:08.748Z,19.19
2023-07-24T14:03:35.445Z,19.22
2023-07-24T14:06:02.223Z,19.32
2023-07-24T14:08:28.706Z,19.39
2023-07-24T14:10:55.201Z,19.45
2023-07-24T14:13:21.700Z,19.49
2023-07-24T14:15:48.241Z,19.52
2023-07-24T14:18:14.776Z,19.54
2023-07-24T14:20:41.702Z,19.57
2023-07-24T14:23:11.447Z,19.63
2023-07-24T14:25:37.948Z,19.71
2023-07-24T14:28:04.609Z,19.74
2023-07-24T14:30:31.054Z,19.75
2023-07-24T14:32:57.699Z,19.61
2023-07-24T14:35:24.448Z,19.58
2023-07-24T14:37:50.961Z,19.63
2023-07-24T14:40:17.555Z,19.71
2023-07-24T14:42:44.196Z,19.79
2023-07-24T14:45:11.120Z,19.86
2023-07-24T14:47:37.632Z,19.86
2023-07-24T14:50:04.375Z,19.86
2023-07-24T14:52:30.824Z,19.87
2023-07-24T14:54:57.260Z,19.92
2023-07-24T14:57:26.093Z,19.93
2023-07-24T14:59:53.567Z,19.88
2023-07-24T15:02:20.208Z,19.77
2023-07-24T15:04:46.903Z,19.66
2023-07-24T15:07:13.395Z,19.53
2023-07-24T15:09:39.866Z,19.49
2023-07-24T15:12:06.561Z,19.46
2023-07-24T15:14:33.160Z,19.41
2023-07-24T15:16:59.632Z,19.46
2023-07-24T15:19:26.104Z,19.43
2023-07-24T15:21:52.675Z,19.41
2023-07-24T15:24:19.493Z,19.44
2023-07-24T15:26:46.686Z,19.38
2023-07-24T15:29:18.923Z,19.34
2023-07-24T15:31:46.461Z,19.22
2023-07-24T15:34:13.195Z,19.17
2023-07-24T15:36:39.775Z,19.16
2023-07-24T15:39:06.428Z,19.12
2023-07-24T15:41:33.392Z,19.00
2023-07-24T15:44:02.803Z,18.95
2023-07-24T15:46:29.839Z,19.00
2023-07-24T15:48:57.639Z,19.02
2023-07-24T15:51:25.399Z,19.01
2023-07-24T15:53:51.909Z,18.99
2023-07-24T15:56:18.416Z,18.98
2023-07-24T15:58:45.005Z,18.86
2023-07-24T16:01:11.831Z,18.82
2023-07-24T16:03:38.629Z,18.76
2023-07-24T16:06:06.102Z,18.77
2023-07-24T16:08:32.797Z,18.81
2023-07-24T16:10:59.500Z,18.81
2023-07-24T16:13:25.922Z,18.77
2023-07-24T16:15:52.396Z,18.64
2023-07-24T16:18:22.942Z,18.60
2023-07-24T16:20:50.873Z,18.56
2023-07-24T16:23:17.385Z,18.50
2023-07-24T16:25:43.795Z,18.23
2023-07-24T16:28:10.246Z,18.18
2023-07-24T16:30:36.946Z,18.10
2023-07-24T16:33:03.415Z,18.06
2023-07-24T16:35:29.893Z,18.04
2023-07-24T16:37:56.370Z,18.11
2023-07-24T16:40:22.837Z,18.03
2023-07-24T16:42:51.769Z,17.97
2023-07-24T16:47:51.921Z,17.86
2023-07-24T16:50:18.456Z,17.83
2023-07-24T16:52:45.166Z,17.81
2023-07-24T16:55:11.863Z,17.78
2023-07-24T16:57:39.136Z,17.80
2023-07-24T17:00:06.718Z,17.75
2023-07-24T17:02:34.373Z,17.67
2023-07-24T17:05:00.915Z,17.64
2023-07-24T17:07:27.412Z,17.67
2023-07-24T17:09:53.896Z,17.76
2023-07-24T17:12:20.387Z,17.71
2023-07-24T17:14:46.917Z,17.73
2023-07-24T17:17:13.979Z,17.76
2023-07-24T17:19:42.649Z,17.81
2023-07-24T17:22:09.758Z,17.76
2023-07-24T17:24:36.436Z,17.77
2023-07-24T17:27:03.190Z,17.79
2023-07-24T17:29:29.728Z,17.74
2023-07-24T17:31:56.163Z,17.69
2023-07-24T17:34:22.709Z,17.68
2023-07-24T17:36:49.129Z,17.73
2023-07-24T17:39:15.705Z,17.76
2023-07-24T17:41:42.193Z,17.76
2023-07-24T17:44:08.635Z,17.72
2023-07-24T17:46:35.119Z,17.68
2023-07-24T17:49:02.068Z,17.67
2023-07-24T17:51:28.845Z,17.68
2023-07-24T17:53:55.488Z,17.67
2023-07-24T17:56:22.051Z,17.67
2023-07-24T17:58:48.523Z,17.70
2023-07-24T18:01:15.017Z,17.71
2023-07-24T18:03:41.649Z,17.76
2023-07-24T18:06:08.166Z,17.70
2023-07-24T18:08:34.597Z,17.67
2023-07-24T18:11:01.779Z,17.70
2023-07-24T18:13:28.225Z,17.67
2023-07-24T18:15:54.728Z,17.63
2023-07-24T18:18:21.174Z,17.66
2023-07-24T18:20:47.929Z,17.60
2023-07-24T18:23:14.518Z,17.64
2023-07-24T18:25:40.968Z,17.68
2023-07-24T18:28:07.684Z,17.76
2023-07-24T18:30:34.158Z,17.78
2023-07-24T18:33:00.918Z,17.78
2023-07-24T18:35:27.409Z,17.76
2023-07-24T18:37:53.977Z,17.73
2023-07-24T18:40:20.646Z,17.68
2023-07-24T18:42:47.433Z,17.66
2023-07-24T18:45:13.819Z,17.63
2023-07-24T18:47:40.280Z,17.56
2023-07-24T18:50:07.043Z,17.49
2023-07-24T18:52:33.607Z,17.36
2023-07-24T18:55:02.973Z,17.33
2023-07-24T18:57:29.433Z,17.38
2023-07-24T18:59:55.911Z,17.38
2023-07-24T19:02:22.593Z,17.31
2023-07-24T19:04:49.155Z,17.32
2023-07-24T19:07:16.398Z,17.30
2023-07-24T19:09:42.864Z,17.31
2023-07-24T19:12:09.293Z,17.28
2023-07-24T19:14:35.747Z,17.27
2023-07-24T19:17:02.266Z,17.29
2023-07-24T19:19:28.718Z,17.28
2023-07-24T19:21:55.190Z,17.31
2023-07-24T19:24:21.655Z,17.35
2023-07-24T19:26:48.158Z,17.35
2023-07-24T19:29:14.661Z,17.29
2023-07-24T19:31:41.132Z,17.35
2023-07-24T19:34:08.125Z,17.38
2023-07-24T19:36:34.569Z,17.43
2023-07-24T19:39:01.305Z,17.41
2023-07-24T19:41:27.776Z,17.37
2023-07-24T19:43:54.265Z,17.37
2023-07-24T19:46:20.796Z,17.41
2023-07-24T19:48:47.377Z,17.44
2023-07-24T19:51:13.814Z,17.40
2023-07-24T19:53:40.227Z,17.37
2023-07-24T19:56:06.671Z,17.32
2023-07-24T19:58:36.451Z,17.35
2023-07-24T20:01:05.003Z,17.33
2023-07-24T20:03:31.764Z,17.35
2023-07-24T20:06:00.668Z,17.29
2023-07-24T20:08:30.225Z,17.31
2023-07-24T20:10:58.812Z,17.32
2023-07-24T20:13:25.614Z,17.31
2023-07-24T20:15:52.242Z,17.26
2023-07-24T20:18:18.646Z,17.26
2023-07-24T20:20:49.690Z,17.26
2023-07-24T20:23:17.396Z,17.26
2023-07-24T20:25:45.904Z,17.24
2023-07-24T20:28:13.238Z,17.21
2023-07-24T20:30:40.116Z,17.17
2023-07-24T20:33:06.683Z,17.16
2023-07-24T20:35:33.856Z,17.08
2023-07-24T20:38:06.320Z,17.04
2023-07-24T20:40:33.971Z,17.07
2023-07-24T20:43:03.309Z,17.05
2023-07-24T20:45:29.745Z,17.00
2023-07-24T20:47:56.229Z,16.95
2023-07-24T20:50:22.721Z,16.95
2023-07-24T20:52:49.189Z,16.93
2023-07-24T20:55:17.337Z,16.85
2023-07-24T20:57:43.798Z,16.83
2023-07-24T21:00:10.758Z,16.80
2023-07-24T21:02:37.310Z,16.78
2023-07-24T21:05:03.960Z,16.74
2023-07-24T21:07:30.557Z,16.70
2023-07-24T21:09:57.303Z,16.68
2023-07-24T21:12:23.721Z,16.67
2023-07-24T21:14:50.317Z,16.62
2023-07-24T21:17:16.816Z,16.57
2023-07-24T21:19:43.282Z,16.53
2023-07-24T21:22:10.047Z,16.51
2023-07-24T21:24:36.510Z,16.48
2023-07-24T21:27:03.173Z,16.47
2023-07-24T21:29:29.582Z,16.44
2023-07-24T21:31:56.984Z,16.40
2023-07-24T21:34:23.464Z,16.39
2023-07-24T21:36:49.949Z,16.37
2023-07-24T21:39:16.464Z,16.38
2023-07-24T21:41:43.112Z,16.37
2023-07-24T21:44:09.590Z,16.35
2023-07-24T21:46:36.122Z,16.29
2023-07-24T21:49:02.534Z,16.25
2023-07-24T21:51:29.251Z,16.25
2023-07-24T21:53:56.011Z,16.24
2023-07-24T21:56:22.463Z,16.21
2023-07-24T21:58:49.350Z,16.16
2023-07-24T22:01:17.689Z,16.10
2023-07-24T22:03:44.182Z,16.07
2023-07-24T22:06:10.920Z,16.05
2023-07-24T22:08:37.545Z,16.05
2023-07-24T22:11:13.675Z,16.03
2023-07-24T22:13:41.627Z,16.02
2023-07-24T22:16:08.306Z,15.97
2023-07-24T22:18:34.918Z,15.93
2023-07-24T22:21:02.309Z,15.91
2023-07-24T22:23:28.992Z,15.90
2023-07-24T22:25:56.509Z,15.88
2023-07-24T22:28:22.972Z,15.86
2023-07-24T22:30:49.950Z,15.85
2023-07-24T22:33:16.517Z,15.84
2023-07-24T22:35:43.013Z,15.84
2023-07-24T22:38:09.484Z,15.82
2023-07-24T22:40:35.973Z,15.78
2023-07-24T22:43:02.417Z,15.74
2023-07-24T22:45:28.826Z,15.73
2023-07-24T22:47:56.396Z,15.69
2023-07-24T22:50:23.179Z,15.67
2023-07-24T22:52:49.745Z,15.61
2023-07-24T22:55:19.345Z,15.59
2023-07-24T22:57:45.789Z,15.58
2023-07-24T23:00:12.565Z,15.59
2023-07-24T23:02:39.031Z,15.57
2023-07-24T23:05:05.949Z,15.53
2023-07-24T23:07:32.656Z,15.53
2023-07-24T23:09:59.087Z,15.52
2023-07-24T23:12:25.481Z,15.51
2023-07-24T23:14:51.993Z,15.47
2023-07-24T23:17:18.423Z,15.45
2023-07-24T23:19:45.206Z,15.43
2023-07-24T23:22:11.714Z,15.40
2023-07-24T23:24:38.398Z,15.41
2023-07-24T23:27:05.055Z,15.39
2023-07-24T23:29:31.563Z,15.38
2023-07-24T23:31:58.021Z,15.38
2023-07-24T23:34:24.525Z,15.39
2023-07-24T23:36:50.979Z,15.37
2023-07-24T23:39:17.395Z,15.35
2023-07-24T23:41:43.864Z,15.34
2023-07-24T23:44:10.468Z,15.26
2023-07-24T23:46:39.761Z,15.26
2023-07-24T23:49:06.253Z,15.24
2023-07-24T23:51:32.959Z,15.18
2023-07-24T23:53:59.608Z,15.19
2023-07-24T23:56:26.038Z,15.16
2023-07-24T23:58:52.505Z,15.08
